AirNav   Air Wisconsin pilot careers
 
 1325 users online  

KGEO Brown County Airport
Georgetown, Ohio, USA

GOING TO GEORGETOWN?


FAA INFORMATION EFFECTIVE 06 DECEMBER 2018

Location

FAA Identifier: GEO
Lat/Long: 38-52-55.0041N / 083-52-57.8520W
38-52.916735N / 083-52.964200W
38.8819456 / -83.8827367
(estimated)
Elevation: 957.6 ft. / 291.9 m (surveyed)
Variation: 05W (2000)
From city: 1 mile NE of GEORGETOWN, OH
Time zone: UTC -5 (UTC -4 during Daylight Saving Time)
Zip code: 45121

Airport Operations

Airport use: Open to the public
Activation date: 04/1971
Control tower: no
ARTCC: INDIANAPOLIS CENTER
FSS: DAYTON FLIGHT SERVICE STATION
NOTAMs facility: DAY (NOTAM-D service available)
Attendance: UNATNDD
Wind indicator: lighted
Segmented circle: no
Lights: ACTVT MIRL RY 18/36 AND REIL RY 18/36 - CTAF.
Beacon: white-green (lighted land airport)
Operates sunset to sunrise.

Airport Communications

CTAF: 122.9
WX AWOS-3 at I69 (19 nm NW): 127.275 (513-732-6978)
  • APCH/DEP SERVICE PROVIDED BY INDIANAPOLIS ARTCC ON FREQS 135.575/290.5 (MERWYN RCAG).

Nearby radio navigation aids

VOR radial/distance  VOR name  Freq  Var
FLMr059/24.4FALMOUTH VOR/DME117.0004W
MXQr191/33.1MIDWEST VOR/DME112.9004W
CVGr106/39.1CINCINNATI VORTAC117.3004W

 
NDB name  Hdg/Dist  Freq  Var  ID
WEST UNION280/15.035904WAMT .- -- -
SPORTYS131/19.424504WPWF .--. .-- ..-.
HILLSBORO226/24.127805WHOC .... --- -.-.
CINCINNATI132/27.133504WLUK .-.. ..- -.-
MADEIRA137/30.037904WMDE -- -.. .

Airport Services

Fuel available: 100LL UL94
SELF SERVICE FUEL AVBL 24 HRS WITH CREDIT CARD.
Parking: tiedowns
Airframe service: FOR AIRFRAME & POWERPLANT REPAIRS PHONE 937-379-1055.
Bottled oxygen: NONE
Bulk oxygen: NONE

Runway Information

Runway 18/36

Dimensions: 3530 x 65 ft. / 1076 x 20 m
Surface: asphalt, in good condition
Runway edge lights: medium intensity
Runway edge markings: RWY 36 MARKINGS FADED.
RUNWAY 18  RUNWAY 36
Latitude: 38-53.203233N38-52.630235N
Longitude: 083-53.027545W083-52.900865W
Elevation: 955.6 ft.953.3 ft.
Gradient: 0.1%0.1%
Traffic pattern: leftleft
Runway heading: 175 magnetic, 170 true355 magnetic, 350 true
Visual slope indicator: 4-light PAPI on left (3.03 degrees glide path)4-light PAPI on left (3.03 degrees glide path)
Runway end identifier lights: yesyes
Touchdown point: yes, no lightsyes, no lights
Obstructions: 61 ft. trees, 588 ft. from runway, 250 ft. right of centerline, 6:1 slope to clear
24 FT. TREES, 0-160 FM THLD, 170 FT. L.
27 ft. tree, 260 ft. from runway, 237 ft. right of centerline, 2:1 slope to clear
35' TREE, 175' FM, 218' LT

Airport Ownership and Management from official FAA records

Ownership: Publicly-owned
Owner: BROWN CO COMM
BROWN COUNTY COURTHOUSE
GEORGETOWN, OH 45121
Phone 937-378-3956
Manager: STEVE AND SANDY MCKINNEY
8862 AIRPORT ROAD
GEORGETOWN, OH 45121
Phone 937-515-0313
STEVE R. MCKINNEY HOME 937-379-1634; BUS 937-379-1055.

Airport Operational Statistics

Aircraft based on the field: 14
Single engine airplanes: 14
    
Aircraft operations: avg 22/day *
61% local general aviation
37% transient general aviation
2% air taxi
<1% military
* for 12-month period ending 09 July 2016

Additional Remarks

AEROBATIC PRACTICE SFC TO 4500 FT AGL ABOVE RY 18/36.

Instrument Procedures

NOTE: All procedures below are presented as PDF files. If you need a reader for these files, you should download the free Adobe Reader.

NOT FOR NAVIGATION. Please procure official charts for flight.
FAA instrument procedures published for use from 6 December 2018 at 0901Z to 3 January 2019 at 0900Z.

 
IAPs - Instrument Approach Procedures
RNAV (GPS) RWY 36   download (174KB)
VOR/DME-A   download (162KB)
NOTE: Special Take-Off Minimums/Departure Procedures apply   download (164KB)

Other nearby airports with instrument procedures:

KAMT - Alexander Salamon Airport (15 nm E)
I69 - Clermont County Airport (19 nm NW)
KFGX - Fleming-Mason Airport (21 nm S)
KHOC - Highland County Airport (24 nm NE)
K62 - Gene Snyder Airport (26 nm SW)
 
Loc | Ops | Rwys | IFR | FBO | Links
Com | Nav | Svcs | Stats | Notes


 
Area around KGEO (Brown County Airport)
 
Road maps at: MapQuest Bing Google
 
Aerial photo
WARNING: Photo may not be current or correct
Aerial photo of KGEO (Brown County Airport)
Do you have a better or more recent aerial photo of Brown County Airport that you would like to share? If so, please send us your photo.

 
Sectional chart

 
Airport distance calculator
Flying to Brown County Airport? Find the distance to fly.

From to KGEO

Sunrise and sunset
Times for 14-Dec-2018
 Local
(UTC-5)
 Zulu
(UTC)
Morning civil twilight07:1712:17
Sunrise07:4712:47
Sunset17:1322:13
Evening civil twilight17:4322:43

Current date and time
Zulu (UTC)  14-Dec-2018 18:01:56
Local (UTC-5)  14-Dec-2018 13:01:56
 
METAR
KI69 
19nm NW 
141756Z AUTO 07005KT 7SM OVC060 13/04 A3011 RMK AO2 T01260043 10131 20061
KFGX 
21nm S 
141735Z AUTO 09004KT 10SM BKN060 OVC075 12/06 A3010 RMK AO2 T01210055
KLUK 
28nm NW 
141753Z 02004KT 10SM OVC075 13/03 A3011 RMK AO2 SLP198 T01330033 10133 20039 58013
KILN 
33nm N 
141754Z AUTO 11006KT 10SM BKN075 OVC095 12/04 A3012 RMK AO2 SLP212 T01220039 10128 20044 58015
KCVG 
38nm W 
141752Z 06006KT 10SM FEW038 BKN055 OVC095 12/03 A3009 RMK AO2 SLP190 60000 T01170028 10117 20072 58011
TAF
KLUK 
28nm NW 
141731Z 1418/1518 05006KT P6SM VCSH BKN045 OVC100 FM150200 06010KT 4SM -RA OVC015 FM150500 06009KT 3SM -RA BR OVC012 FM150800 05011KT 3SM -RA BR OVC008
KILN 
33nm N 
141731Z 1418/1518 10006KT P6SM SCT050 BKN070 FM142300 06007KT P6SM VCSH OVC040 FM150300 06009KT P6SM VCSH OVC025 FM150800 05010KT 4SM -RA BR OVC012 FM151100 05012KT 3SM -RA BR OVC008 FM151500 05013KT 2SM -RA BR OVC006
NOTAMs
Click for the latest NOTAMs
NOTAMs are issued by the DoD/FAA and will open in a separate window not controlled by AirNav.

 

 
 

FBO, Fuel Providers, and Aircraft Ground Support

  
 Business Name 
 
 Contact 
 
 Services / Description 
 
Fuel Prices
 
Comments
  
Brown County Pilots Association 937-379-1055
no information available

If you are affiliated with Brown County Pilots Association and would like to show here your services, contact info, web link, logo, and more, click here
100LL UL94
SS $5.29 $4.79 
 Updated 06-Dec-2018
 
   1 read write
SS=Self service
Update Fuel Prices
 

Would you like to see your business listed on this page?

 If your business provides an interesting product or service to pilots, flight crews, aircraft, or users of the Brown County Airport, you should consider listing it here.  To start the listing process, click on the button below
 
Add a business
 

Other Pages about Brown County Airport

Update a link
 
Copyright © AirNav, LLC. All rights reserved. Privacy Policy  Contact